首页
METAR-TAF:

METAR-TAF

机场 :

贝鲁特, 黎巴嫩

纬度: 33-49N, 经度: 035-29E, 海拔: 29米

当前天气观测

该预报发布于37分钟前的21:00 UTC
风速3节,风向,在东北东南之间变化
温度 31°C
湿度 22%
气压 1009 hPa
能見度: 5000

METAR: OLBA 232100Z 09003KT 050V130 5000 HZ NSC 31/07 Q1009 NOSIG

时间: 00:37 (21:37 UTC)

预报

该预报发布于5小时和37分钟前的16:00 UTC
预报有效从23日的 18点(UTC)到 24日的 24点(UTC)
风速3节,风向多变
能見度: 7000
成为
从 24日的 06点(UTC)到 24日的 09点(UTC)
风速13节,风向北转东北
短暂存在
从 24日的 06点(UTC)到 24日的 15点(UTC)
能見度: 4000
成为
从 24日的 15点(UTC)到 24日的 18点(UTC)
风速13节,风向西南
成为
从 24日的 18点(UTC)到 24日的 20点(UTC)
风速3节,风向多变
能見度: 7000
少量云层高于3000英尺
短暂存在
从 24日的 15点(UTC)到 24日的 24点(UTC)
能見度: 4000
轻雾

TAF: OLBA 231600Z 2318/2424 VRB03KT 7000 NSC BECMG 2406/2409 02013KT TEMPO 2406/2415 4000 HZ BECMG 2415/2418 23013KT BECMG 2418/2420 VRB03KT 7000 FEW030 TEMPO 2415/2424 4000 BR

超过4000个机场的气象观测和天气预报(METAR&TAF报告)。

可查询的气象台以黄色和红色小点在地图上表示。

将鼠标移到小点上方,可查看气象台名称。

然后点击查看天气观测和预报。

如需切换地图:点击带黑十字的绿色按钮放大地图;点击带横线的绿色按钮缩小地图;或者点击绿色箭头查看邻近地区的地图。


METAR-TAF: